createdAt,value
2024-04-22T00:00:19.642Z,7.80
2024-04-22T00:01:24.437Z,7.97
2024-04-22T00:02:29.301Z,8.20
2024-04-22T00:03:34.899Z,8.30
2024-04-22T00:04:39.882Z,7.90
2024-04-22T00:05:44.719Z,8.35
2024-04-22T00:06:50.316Z,7.72
2024-04-22T00:07:55.185Z,7.53
2024-04-22T00:08:59.870Z,8.10
2024-04-22T00:10:05.018Z,7.53
2024-04-22T00:11:10.201Z,7.07
2024-04-22T00:12:15.016Z,7.20
2024-04-22T00:13:20.590Z,6.93
2024-04-22T00:14:25.408Z,7.15
2024-04-22T00:15:30.279Z,6.95
2024-04-22T00:16:35.641Z,7.03
2024-04-22T00:17:40.559Z,7.15
2024-04-22T00:18:45.441Z,6.97
2024-04-22T00:19:51.811Z,7.28
2024-04-22T00:20:56.744Z,6.75
2024-04-22T00:22:01.693Z,7.00
2024-04-22T00:23:06.837Z,7.03
2024-04-22T00:24:11.731Z,7.25
2024-04-22T00:25:16.615Z,7.00
2024-04-22T00:26:22.259Z,6.75
2024-04-22T00:27:27.505Z,6.70
2024-04-22T00:28:32.587Z,6.70
2024-04-22T00:29:37.731Z,6.90
2024-04-22T00:30:42.537Z,7.35
2024-04-22T00:31:47.654Z,7.03
2024-04-22T00:32:53.317Z,7.00
2024-04-22T00:33:58.080Z,6.97
2024-04-22T00:35:02.911Z,7.10
2024-04-22T00:36:08.243Z,7.28
2024-04-22T00:37:13.210Z,6.90
2024-04-22T00:38:17.965Z,6.60
2024-04-22T00:39:23.389Z,7.38
2024-04-22T00:40:28.862Z,7.05
2024-04-22T00:41:35.590Z,7.22
2024-04-22T00:42:45.899Z,7.13
2024-04-22T00:43:50.683Z,7.72
2024-04-22T00:44:55.618Z,7.72
2024-04-22T00:46:01.113Z,7.38
2024-04-22T00:47:06.173Z,6.88
2024-04-22T00:48:11.012Z,7.68
2024-04-22T00:49:16.195Z,7.15
2024-04-22T00:50:21.043Z,7.57
2024-04-22T00:51:26.045Z,7.22
2024-04-22T00:52:31.664Z,8.73
2024-04-22T00:53:36.500Z,7.03
2024-04-22T00:54:41.278Z,7.05
2024-04-22T00:55:46.583Z,7.03
2024-04-22T00:56:51.644Z,7.07
2024-04-22T00:58:00.835Z,7.57
2024-04-22T00:59:06.745Z,7.32
2024-04-22T01:00:11.940Z,6.95
2024-04-22T01:01:19.618Z,7.88
2024-04-22T01:02:24.772Z,8.05
2024-04-22T01:03:29.828Z,6.93
2024-04-22T01:04:36.024Z,6.88
2024-04-22T01:05:41.563Z,6.60
2024-04-22T01:06:46.736Z,6.90
2024-04-22T01:07:51.548Z,6.95
2024-04-22T01:08:56.685Z,7.82
2024-04-22T01:10:02.055Z,7.40
2024-04-22T01:11:06.860Z,8.32
2024-04-22T01:12:12.417Z,8.10
2024-04-22T01:13:17.354Z,7.82
2024-04-22T01:14:22.291Z,7.72
2024-04-22T01:15:27.462Z,6.95
2024-04-22T01:16:32.304Z,6.97
2024-04-22T01:17:46.026Z,7.40
2024-04-22T01:18:51.569Z,6.82
2024-04-22T01:19:56.339Z,7.60
2024-04-22T01:21:01.141Z,7.82
2024-04-22T01:22:06.650Z,7.65
2024-04-22T01:23:11.466Z,6.97
2024-04-22T01:24:16.363Z,7.43
2024-04-22T01:25:22.078Z,6.88
2024-04-22T01:26:29.876Z,6.72
2024-04-22T01:27:35.310Z,7.07
2024-04-22T01:28:40.505Z,6.65
2024-04-22T01:29:45.520Z,7.00
2024-04-22T01:30:50.464Z,6.95
2024-04-22T01:31:55.998Z,6.57
2024-04-22T01:33:01.140Z,7.20
2024-04-22T01:34:06.101Z,6.90
2024-04-22T01:35:11.210Z,6.43
2024-04-22T01:36:17.544Z,7.00
2024-04-22T01:37:22.588Z,7.00
2024-04-22T01:38:28.230Z,6.05
2024-04-22T01:39:33.071Z,6.68
2024-04-22T01:40:37.980Z,6.57
2024-04-22T01:41:43.046Z,7.53
2024-04-22T01:42:47.992Z,7.15
2024-04-22T01:43:52.823Z,7.03
2024-04-22T01:44:58.347Z,6.80
2024-04-22T01:46:05.281Z,6.60
2024-04-22T01:47:10.281Z,7.60
2024-04-22T01:48:15.440Z,7.47
2024-04-22T01:49:23.118Z,7.05
2024-04-22T01:50:27.950Z,7.15
2024-04-22T01:51:33.607Z,6.68
2024-04-22T01:52:38.608Z,6.72
2024-04-22T01:53:43.609Z,6.38
2024-04-22T01:54:48.698Z,5.93
2024-04-22T01:55:56.447Z,6.80
2024-04-22T01:57:02.009Z,7.07
2024-04-22T01:58:07.727Z,6.78
2024-04-22T01:59:12.612Z,7.18
2024-04-22T02:00:17.725Z,6.72
2024-04-22T02:01:22.942Z,7.25
2024-04-22T02:02:27.825Z,6.90
2024-04-22T02:03:32.714Z,7.43
2024-04-22T02:04:38.384Z,7.50
2024-04-22T02:05:44.164Z,7.43
2024-04-22T02:06:48.920Z,7.07
2024-04-22T02:07:54.785Z,6.90
2024-04-22T02:08:59.830Z,7.15
2024-04-22T02:10:12.836Z,7.05
2024-04-22T02:11:27.474Z,6.65
2024-04-22T02:12:32.544Z,7.00
2024-04-22T02:13:37.482Z,7.63
2024-04-22T02:14:42.879Z,7.10
2024-04-22T02:15:47.806Z,6.93
2024-04-22T02:16:52.687Z,6.90
2024-04-22T02:18:08.234Z,7.05
2024-04-22T02:19:13.190Z,8.00
2024-04-22T02:20:18.183Z,8.07
2024-04-22T02:21:32.411Z,7.07
2024-04-22T02:22:37.255Z,7.05
2024-04-22T02:23:42.188Z,6.88
2024-04-22T02:24:48.157Z,6.55
2024-04-22T02:25:53.079Z,6.78
2024-04-22T02:26:58.472Z,7.00
2024-04-22T02:28:03.455Z,6.53
2024-04-22T02:29:08.215Z,6.47
2024-04-22T02:30:13.373Z,6.55
2024-04-22T02:31:35.648Z,7.47
2024-04-22T02:32:40.698Z,6.90
2024-04-22T02:33:45.663Z,6.72
2024-04-22T02:34:51.637Z,7.38
2024-04-22T02:35:56.457Z,6.78
2024-04-22T02:37:01.334Z,6.72
2024-04-22T02:38:07.066Z,7.32
2024-04-22T02:39:12.231Z,7.07
2024-04-22T02:40:17.263Z,6.93
2024-04-22T02:41:22.403Z,7.18
2024-04-22T02:42:27.239Z,7.38
2024-04-22T02:43:32.073Z,7.65
2024-04-22T02:44:37.840Z,7.10
2024-04-22T02:45:42.922Z,6.95
2024-04-22T02:46:47.783Z,7.13
2024-04-22T02:47:53.108Z,7.13
2024-04-22T02:48:58.046Z,7.32
2024-04-22T02:50:03.652Z,6.65
2024-04-22T02:51:09.160Z,7.00
2024-04-22T02:52:14.209Z,7.10
2024-04-22T02:53:19.060Z,7.97
2024-04-22T02:54:30.435Z,7.60
2024-04-22T02:55:35.396Z,7.70
2024-04-22T02:56:40.276Z,7.80
2024-04-22T02:57:45.845Z,7.53
2024-04-22T02:58:50.753Z,7.50
2024-04-22T02:59:55.688Z,7.20
2024-04-22T03:01:02.931Z,7.22
2024-04-22T03:02:07.811Z,7.10
2024-04-22T03:03:12.695Z,7.32
2024-04-22T03:04:18.334Z,7.00
2024-04-22T03:05:23.169Z,7.20
2024-04-22T03:06:28.182Z,6.57
2024-04-22T03:07:33.868Z,7.13
2024-04-22T03:08:40.117Z,8.13
2024-04-22T03:09:47.957Z,7.55
2024-04-22T03:10:53.415Z,7.95
2024-04-22T03:11:58.364Z,7.78
2024-04-22T03:13:06.373Z,7.85
2024-04-22T03:14:11.388Z,7.47
2024-04-22T03:15:16.177Z,7.40
2024-04-22T03:16:21.322Z,7.53
2024-04-22T03:17:27.089Z,7.63
2024-04-22T03:18:31.771Z,7.40
2024-04-22T03:19:37.228Z,6.93
2024-04-22T03:20:42.363Z,7.38
2024-04-22T03:21:47.355Z,7.60
2024-04-22T03:22:52.053Z,7.38
2024-04-22T03:23:57.458Z,7.57
2024-04-22T03:25:02.950Z,8.57
2024-04-22T03:26:08.114Z,8.40
2024-04-22T03:27:13.438Z,8.27
2024-04-22T03:28:18.236Z,8.13
2024-04-22T03:29:23.065Z,8.40
2024-04-22T03:30:28.548Z,7.85
2024-04-22T03:31:34.211Z,7.57
2024-04-22T03:32:39.954Z,7.65
2024-04-22T03:33:44.952Z,7.80
2024-04-22T03:34:49.761Z,8.45
2024-04-22T03:35:54.648Z,7.70
2024-04-22T03:37:00.297Z,8.63
2024-04-22T03:38:06.165Z,8.07
2024-04-22T03:39:11.059Z,7.45
2024-04-22T03:40:16.171Z,7.43
2024-04-22T03:41:20.912Z,7.80
2024-04-22T03:42:25.886Z,7.95
2024-04-22T03:43:31.416Z,8.00
2024-04-22T03:44:36.342Z,17.52
2024-04-22T03:45:41.121Z,13.90
2024-04-22T03:47:04.086Z,10.20
2024-04-22T03:48:27.276Z,16.70
2024-04-22T03:49:50.816Z,11.60
2024-04-22T03:50:57.862Z,9.27
2024-04-22T03:52:04.042Z,8.20
2024-04-22T03:53:08.878Z,8.25
2024-04-22T03:54:13.730Z,6.95
2024-04-22T03:55:19.309Z,6.97
2024-04-22T03:56:24.127Z,6.65
2024-04-22T03:57:29.024Z,7.07
2024-04-22T03:58:33.998Z,7.03
2024-04-22T03:59:40.698Z,7.13
2024-04-22T04:00:45.515Z,6.82
2024-04-22T04:01:50.957Z,7.63
2024-04-22T04:02:55.829Z,7.75
2024-04-22T04:04:01.881Z,7.47
2024-04-22T04:05:07.191Z,7.30
2024-04-22T04:06:12.210Z,7.40
2024-04-22T04:07:17.109Z,6.75
2024-04-22T04:08:22.571Z,7.28
2024-04-22T04:09:27.566Z,9.07
2024-04-22T04:10:32.409Z,7.20
2024-04-22T04:11:39.897Z,6.93
2024-04-22T04:12:44.669Z,7.35
2024-04-22T04:13:49.472Z,7.35
2024-04-22T04:14:54.818Z,7.60
2024-04-22T04:15:59.598Z,7.45
2024-04-22T04:17:04.660Z,6.78
2024-04-22T04:18:09.846Z,7.25
2024-04-22T04:19:14.717Z,7.03
2024-04-22T04:20:19.477Z,7.22
2024-04-22T04:21:24.951Z,9.98
2024-04-22T04:22:29.835Z,9.80
2024-04-22T04:23:35.324Z,10.50
2024-04-22T04:24:40.383Z,9.13
2024-04-22T04:25:45.160Z,9.90
2024-04-22T04:26:50.437Z,7.82
2024-04-22T04:27:55.889Z,7.78
2024-04-22T04:29:00.667Z,7.25
2024-04-22T04:30:06.407Z,7.07
2024-04-22T04:31:11.376Z,7.45
2024-04-22T04:32:16.434Z,6.50
2024-04-22T04:33:21.211Z,9.20
2024-04-22T04:34:26.707Z,7.93
2024-04-22T04:35:31.833Z,7.70
2024-04-22T04:36:36.552Z,10.82
2024-04-22T04:37:41.681Z,9.70
2024-04-22T04:38:46.594Z,8.68
2024-04-22T04:39:51.613Z,7.90
2024-04-22T04:40:59.171Z,9.50
2024-04-22T04:42:04.145Z,8.15
2024-04-22T04:43:08.954Z,7.93
2024-04-22T04:44:14.477Z,7.88
2024-04-22T04:45:19.346Z,7.28
2024-04-22T04:46:24.187Z,9.43
2024-04-22T04:47:30.417Z,8.10
2024-04-22T04:48:35.285Z,9.15
2024-04-22T04:49:40.283Z,7.75
2024-04-22T04:50:45.550Z,7.55
2024-04-22T04:51:50.383Z,7.15
2024-04-22T04:52:55.178Z,6.50
2024-04-22T04:54:00.634Z,7.30
2024-04-22T04:55:05.534Z,6.60
2024-04-22T04:56:10.527Z,7.32
2024-04-22T04:57:15.716Z,8.07
2024-04-22T04:58:22.970Z,7.85
2024-04-22T04:59:30.038Z,7.38
2024-04-22T05:00:36.402Z,6.78
2024-04-22T05:01:41.501Z,6.47
2024-04-22T05:02:46.602Z,7.40
2024-04-22T05:03:51.676Z,8.18
2024-04-22T05:04:56.592Z,7.38
2024-04-22T05:06:04.610Z,6.88
2024-04-22T05:07:11.845Z,6.53
2024-04-22T05:08:18.667Z,6.82
2024-04-22T05:09:23.521Z,6.82
2024-04-22T05:10:29.062Z,7.00
2024-04-22T05:11:33.966Z,6.10
2024-04-22T05:12:38.741Z,7.30
2024-04-22T05:13:44.436Z,6.68
2024-04-22T05:14:49.386Z,6.20
2024-04-22T05:15:54.338Z,7.20
2024-04-22T05:16:59.587Z,7.40
2024-04-22T05:18:04.670Z,6.95
2024-04-22T05:19:09.755Z,7.00
2024-04-22T05:20:15.286Z,6.80
2024-04-22T05:21:20.105Z,6.40
2024-04-22T05:22:25.121Z,6.40
2024-04-22T05:23:30.183Z,6.60
2024-04-22T05:24:34.947Z,6.90
2024-04-22T05:25:39.699Z,6.13
2024-04-22T05:26:45.124Z,6.13
2024-04-22T05:27:49.976Z,5.88
2024-04-22T05:28:54.787Z,6.10
2024-04-22T05:29:59.950Z,6.15
2024-04-22T05:31:04.863Z,5.40
2024-04-22T05:32:09.836Z,5.57
2024-04-22T05:33:33.628Z,5.53
2024-04-22T05:34:56.896Z,6.53
2024-04-22T05:36:17.223Z,8.07
2024-04-22T05:37:23.107Z,6.65
2024-04-22T05:38:27.858Z,6.40
2024-04-22T05:39:33.493Z,6.40
2024-04-22T05:40:38.455Z,6.22
2024-04-22T05:41:43.619Z,5.57
2024-04-22T05:42:49.699Z,5.60
2024-04-22T05:43:54.438Z,5.63
2024-04-22T05:44:59.185Z,5.22
2024-04-22T05:46:07.075Z,6.60
2024-04-22T05:47:12.208Z,5.80
2024-04-22T05:48:17.137Z,5.35
2024-04-22T05:49:24.133Z,5.43
2024-04-22T05:50:29.179Z,5.50
2024-04-22T05:51:34.073Z,4.97
2024-04-22T05:52:39.635Z,5.30
2024-04-22T05:53:45.714Z,5.90
2024-04-22T05:54:50.602Z,5.60
2024-04-22T05:55:58.883Z,5.50
2024-04-22T05:57:03.682Z,6.28
2024-04-22T05:58:08.693Z,6.05
2024-04-22T05:59:15.565Z,8.25
2024-04-22T06:00:20.444Z,8.32
2024-04-22T06:01:25.412Z,6.78
2024-04-22T06:02:30.606Z,5.65
2024-04-22T06:03:36.175Z,5.32
2024-04-22T06:04:41.138Z,4.93
2024-04-22T06:05:46.761Z,5.57
2024-04-22T06:06:51.695Z,5.50
2024-04-22T06:07:56.546Z,5.43
2024-04-22T06:09:14.901Z,5.40
2024-04-22T06:10:20.831Z,6.97
2024-04-22T06:11:25.955Z,6.38
2024-04-22T06:12:31.626Z,10.43
2024-04-22T06:13:36.475Z,12.07
2024-04-22T06:14:41.483Z,9.27
2024-04-22T06:15:46.661Z,7.68
2024-04-22T06:16:53.640Z,7.00
2024-04-22T06:17:58.560Z,6.20
2024-04-22T06:19:04.408Z,6.55
2024-04-22T06:20:10.123Z,5.90
2024-04-22T06:21:15.213Z,5.55
2024-04-22T06:22:20.317Z,5.50
2024-04-22T06:23:25.427Z,5.20
2024-04-22T06:24:32.169Z,5.22
2024-04-22T06:25:38.100Z,5.13
2024-04-22T06:26:43.093Z,5.00
2024-04-22T06:27:48.477Z,5.07
2024-04-22T06:28:53.566Z,6.25
2024-04-22T06:29:58.479Z,4.97
2024-04-22T06:31:03.843Z,4.65
2024-04-22T06:32:09.786Z,5.30
2024-04-22T06:33:14.657Z,5.30
2024-04-22T06:34:19.565Z,4.95
2024-04-22T06:35:24.949Z,5.32
2024-04-22T06:36:29.772Z,5.28
2024-04-22T06:37:34.789Z,5.30
2024-04-22T06:38:40.615Z,5.05
2024-04-22T06:39:48.383Z,5.85
2024-04-22T06:40:53.171Z,5.50
2024-04-22T06:41:58.299Z,4.95
2024-04-22T06:43:03.756Z,5.40
2024-04-22T06:44:08.612Z,5.03
2024-04-22T06:45:14.229Z,4.97
2024-04-22T06:46:19.099Z,5.20
2024-04-22T06:47:24.493Z,4.97
2024-04-22T06:48:29.595Z,5.03
2024-04-22T06:49:35.361Z,5.63
2024-04-22T06:50:40.325Z,5.40
2024-04-22T06:51:45.975Z,5.15
2024-04-22T06:52:50.916Z,5.32
2024-04-22T06:53:56.017Z,5.75
2024-04-22T06:55:01.091Z,5.65
2024-04-22T06:56:06.236Z,5.40
2024-04-22T06:57:11.155Z,6.57
2024-04-22T06:58:17.853Z,6.45
2024-04-22T06:59:22.751Z,7.00
2024-04-22T07:00:27.701Z,6.15
2024-04-22T07:01:38.857Z,5.40
2024-04-22T07:02:45.588Z,6.05
2024-04-22T07:03:50.792Z,5.47
2024-04-22T07:04:57.162Z,5.97
2024-04-22T07:06:03.157Z,7.00
2024-04-22T07:07:08.399Z,6.00
2024-04-22T07:08:13.465Z,6.65
2024-04-22T07:09:19.128Z,6.07
2024-04-22T07:10:24.005Z,5.60
2024-04-22T07:11:29.570Z,5.63
2024-04-22T07:12:34.772Z,5.53
2024-04-22T07:13:39.628Z,5.95
2024-04-22T07:14:44.929Z,6.15
2024-04-22T07:15:49.844Z,5.47
2024-04-22T07:16:58.488Z,5.22
2024-04-22T07:18:04.195Z,4.90
2024-04-22T07:19:09.286Z,5.22
2024-04-22T07:20:14.335Z,5.53
2024-04-22T07:21:20.040Z,5.07
2024-04-22T07:22:29.812Z,4.80
2024-04-22T07:23:34.975Z,5.70
2024-04-22T07:24:54.205Z,5.63
2024-04-22T07:26:06.540Z,5.03
2024-04-22T07:27:19.744Z,5.68
2024-04-22T07:28:28.674Z,6.05
2024-04-22T07:29:33.970Z,5.75
2024-04-22T07:30:39.998Z,4.80
2024-04-22T07:31:47.571Z,5.60
2024-04-22T07:32:52.775Z,4.97
2024-04-22T07:33:58.784Z,4.93
2024-04-22T07:35:04.154Z,5.03
2024-04-22T07:36:33.309Z,5.25
2024-04-22T07:37:39.586Z,4.50
2024-04-22T07:38:45.323Z,4.57
2024-04-22T07:39:53.180Z,4.15
2024-04-22T07:40:59.378Z,4.68
2024-04-22T07:42:04.745Z,5.13
2024-04-22T07:43:10.555Z,5.40
2024-04-22T07:44:16.054Z,5.30
2024-04-22T07:45:26.651Z,5.40
2024-04-22T07:46:33.356Z,5.00
2024-04-22T07:47:39.160Z,4.70
2024-04-22T07:48:44.338Z,5.10
2024-04-22T07:49:49.397Z,5.13
2024-04-22T07:50:54.812Z,5.63
2024-04-22T07:52:00.310Z,5.53
2024-04-22T07:53:08.376Z,5.30
2024-04-22T07:54:13.838Z,4.95
2024-04-22T07:55:18.867Z,4.70
2024-04-22T07:56:27.185Z,4.57
2024-04-22T07:57:33.057Z,4.55
2024-04-22T07:58:38.293Z,4.65
2024-04-22T07:59:43.314Z,4.68
2024-04-22T08:00:48.914Z,4.72
2024-04-22T08:01:53.950Z,4.93
2024-04-22T08:02:59.160Z,5.20
2024-04-22T08:04:05.546Z,5.63
2024-04-22T08:05:11.045Z,4.45
2024-04-22T08:06:25.093Z,4.53
2024-04-22T08:07:30.222Z,5.57
2024-04-22T08:08:36.286Z,4.88
2024-04-22T08:09:41.154Z,5.38
2024-04-22T08:10:47.386Z,5.30
2024-04-22T08:11:52.605Z,5.18
2024-04-22T08:12:57.315Z,4.80
2024-04-22T08:14:03.035Z,4.38
2024-04-22T08:15:08.309Z,4.60
2024-04-22T08:16:13.037Z,4.35
2024-04-22T08:17:18.943Z,4.68
2024-04-22T08:18:23.830Z,4.40
2024-04-22T08:19:28.682Z,4.80
2024-04-22T08:20:33.820Z,4.43
2024-04-22T08:21:38.533Z,5.03
2024-04-22T08:22:43.992Z,4.97
2024-04-22T08:23:49.538Z,5.07
2024-04-22T08:24:54.333Z,5.03
2024-04-22T08:25:59.614Z,5.30
2024-04-22T08:27:04.743Z,4.65
2024-04-22T08:28:09.595Z,5.78
2024-04-22T08:29:14.381Z,5.50
2024-04-22T08:30:19.960Z,5.70
2024-04-22T08:31:24.701Z,5.30
2024-04-22T08:32:29.662Z,5.13
2024-04-22T08:33:35.009Z,4.50
2024-04-22T08:34:41.386Z,6.05
2024-04-22T08:35:48.929Z,5.20
2024-04-22T08:36:56.221Z,6.40
2024-04-22T08:38:01.059Z,5.72
2024-04-22T08:39:06.887Z,5.30
2024-04-22T08:40:12.849Z,4.93
2024-04-22T08:41:20.374Z,5.55
2024-04-22T08:42:26.035Z,4.75
2024-04-22T08:43:32.454Z,4.72
2024-04-22T08:44:37.519Z,4.82
2024-04-22T08:45:46.101Z,4.50
2024-04-22T08:46:51.228Z,4.88
2024-04-22T08:47:56.049Z,5.05
2024-04-22T08:49:00.823Z,4.53
2024-04-22T08:50:07.019Z,4.63
2024-04-22T08:51:11.882Z,4.78
2024-04-22T08:52:18.840Z,4.32
2024-04-22T08:53:23.924Z,4.05
2024-04-22T08:54:28.878Z,4.45
2024-04-22T08:55:34.001Z,4.78
2024-04-22T08:56:39.510Z,4.95
2024-04-22T08:57:44.300Z,5.40
2024-04-22T08:58:49.197Z,4.65
2024-04-22T08:59:54.296Z,4.70
2024-04-22T09:00:59.776Z,5.20
2024-04-22T09:02:05.037Z,4.82
2024-04-22T09:03:11.026Z,4.22
2024-04-22T09:04:15.916Z,4.63
2024-04-22T09:05:20.931Z,4.35
2024-04-22T09:06:26.383Z,5.97
2024-04-22T09:07:31.106Z,5.20
2024-04-22T09:08:46.881Z,4.68
2024-04-22T09:10:10.991Z,5.10
2024-04-22T09:11:46.715Z,4.95
2024-04-22T09:12:57.146Z,4.53
2024-04-22T09:14:03.617Z,4.53
2024-04-22T09:15:09.389Z,4.35
2024-04-22T09:16:18.815Z,4.30
2024-04-22T09:17:23.801Z,4.60
2024-04-22T09:18:30.235Z,4.07
2024-04-22T09:19:36.983Z,4.47
2024-04-22T09:20:41.776Z,5.10
2024-04-22T09:21:46.458Z,4.70
2024-04-22T09:22:52.541Z,4.38
2024-04-22T09:23:57.518Z,4.18
2024-04-22T09:25:02.710Z,4.20
2024-04-22T09:26:08.645Z,4.78
2024-04-22T09:27:13.865Z,4.07
2024-04-22T09:28:19.999Z,4.03
2024-04-22T09:29:25.879Z,4.78
2024-04-22T09:30:31.107Z,4.38
2024-04-22T09:31:40.647Z,4.05
2024-04-22T09:32:50.042Z,3.88
2024-04-22T09:33:56.690Z,3.92
2024-04-22T09:35:20.312Z,4.05
2024-04-22T09:36:26.333Z,4.60
2024-04-22T09:37:33.051Z,4.63
2024-04-22T09:38:45.828Z,4.57
2024-04-22T09:39:52.793Z,4.57
2024-04-22T09:40:58.044Z,4.20
2024-04-22T09:42:04.403Z,4.75
2024-04-22T09:43:09.971Z,4.53
2024-04-22T09:44:16.444Z,4.50
2024-04-22T09:45:22.943Z,4.60
2024-04-22T09:46:28.836Z,4.63
2024-04-22T09:47:34.559Z,4.40
2024-04-22T09:48:39.615Z,4.65
2024-04-22T09:49:46.263Z,4.03
2024-04-22T09:50:51.417Z,3.95
2024-04-22T09:51:56.333Z,4.03
2024-04-22T09:53:03.446Z,4.70
2024-04-22T09:54:08.652Z,4.75
2024-04-22T09:55:13.630Z,4.80
2024-04-22T09:56:48.234Z,4.20
2024-04-22T09:57:55.606Z,4.30
2024-04-22T09:59:01.483Z,4.32
2024-04-22T10:00:06.858Z,4.65
2024-04-22T10:01:12.032Z,4.00
2024-04-22T10:02:17.830Z,4.18
2024-04-22T10:03:22.900Z,4.70
2024-04-22T10:04:28.038Z,4.30
2024-04-22T10:05:33.490Z,3.85
2024-04-22T10:06:38.394Z,4.22
2024-04-22T10:07:43.498Z,4.43
2024-04-22T10:08:50.213Z,4.43
2024-04-22T10:09:55.668Z,4.30
2024-04-22T10:11:10.701Z,4.38
2024-04-22T10:12:18.305Z,4.88
2024-04-22T10:13:29.433Z,4.60
2024-04-22T10:14:34.595Z,4.50
2024-04-22T10:15:40.178Z,4.30
2024-04-22T10:17:00.392Z,4.95
2024-04-22T10:18:12.272Z,4.53
2024-04-22T10:19:17.405Z,4.15
2024-04-22T10:20:22.619Z,4.10
2024-04-22T10:21:30.156Z,3.90
2024-04-22T10:22:39.147Z,3.95
2024-04-22T10:23:43.975Z,4.22
2024-04-22T10:24:52.420Z,3.80
2024-04-22T10:25:58.139Z,3.85
2024-04-22T10:27:09.803Z,3.95
2024-04-22T10:28:16.944Z,4.10
2024-04-22T10:29:22.451Z,4.10
2024-04-22T10:30:39.806Z,4.13
2024-04-22T10:31:46.572Z,4.30
2024-04-22T10:32:51.902Z,4.38
2024-04-22T10:33:58.034Z,4.22
2024-04-22T10:35:02.863Z,4.10
2024-04-22T10:36:08.737Z,4.10
2024-04-22T10:37:14.030Z,3.83
2024-04-22T10:38:20.333Z,4.00
2024-04-22T10:39:25.868Z,3.88
2024-04-22T10:40:30.606Z,4.30
2024-04-22T10:41:35.369Z,3.85
2024-04-22T10:42:41.147Z,4.10
2024-04-22T10:43:48.784Z,4.00
2024-04-22T10:44:53.845Z,4.28
2024-04-22T10:45:59.508Z,4.20
2024-04-22T10:47:06.383Z,3.97
2024-04-22T10:48:15.888Z,4.00
2024-04-22T10:49:23.854Z,4.22
2024-04-22T10:50:29.272Z,4.22
2024-04-22T10:51:34.917Z,3.75
2024-04-22T10:52:39.841Z,4.05
2024-04-22T10:53:44.759Z,4.10
2024-04-22T10:54:52.708Z,4.05
2024-04-22T10:55:58.895Z,3.78
2024-04-22T10:57:03.749Z,3.97
2024-04-22T10:58:08.486Z,3.90
2024-04-22T10:59:14.156Z,4.10
2024-04-22T11:00:19.029Z,4.32
2024-04-22T11:01:24.154Z,4.22
2024-04-22T11:02:32.702Z,4.00
2024-04-22T11:03:38.067Z,4.40
2024-04-22T11:04:43.298Z,4.13
2024-04-22T11:05:50.195Z,4.20
2024-04-22T11:06:54.963Z,4.30
2024-04-22T11:08:03.825Z,4.22
2024-04-22T11:09:12.308Z,4.03
2024-04-22T11:10:23.248Z,3.83
2024-04-22T11:11:33.476Z,3.97
2024-04-22T11:12:38.807Z,3.85
2024-04-22T11:13:43.826Z,3.90
2024-04-22T11:14:48.635Z,4.28
2024-04-22T11:15:55.455Z,4.22
2024-04-22T11:17:00.738Z,4.22
2024-04-22T11:18:11.447Z,4.60
2024-04-22T11:19:16.561Z,4.57
2024-04-22T11:20:21.424Z,4.80
2024-04-22T11:21:26.358Z,4.28
2024-04-22T11:22:32.393Z,4.18
2024-04-22T11:23:37.263Z,4.20
2024-04-22T11:24:42.029Z,3.92
2024-04-22T11:25:48.959Z,4.38
2024-04-22T11:26:53.873Z,3.90
2024-04-22T11:27:59.182Z,4.10
2024-04-22T11:29:06.682Z,4.10
2024-04-22T11:30:11.824Z,4.28
2024-04-22T11:31:17.972Z,4.32
2024-04-22T11:32:24.015Z,4.47
2024-04-22T11:33:31.346Z,4.55
2024-04-22T11:34:36.266Z,4.88
2024-04-22T11:35:41.814Z,4.72
2024-04-22T11:36:46.674Z,5.05
2024-04-22T11:37:51.510Z,4.80
2024-04-22T11:38:56.876Z,5.20
2024-04-22T11:40:01.807Z,4.60
2024-04-22T11:41:06.771Z,5.07
2024-04-22T11:42:12.348Z,4.63
2024-04-22T11:43:17.189Z,4.70
2024-04-22T11:49:31.050Z,6.90
2024-04-22T11:50:39.837Z,6.28
2024-04-22T11:51:45.706Z,6.78
2024-04-22T11:52:51.116Z,6.32
2024-04-22T11:53:57.281Z,6.25
2024-04-22T11:55:02.946Z,6.13
2024-04-22T11:56:09.028Z,6.05
2024-04-22T11:57:14.315Z,5.80
2024-04-22T11:58:21.232Z,5.70
2024-04-22T11:59:26.344Z,5.43
2024-04-22T12:00:31.207Z,5.38
2024-04-22T12:01:37.384Z,5.25
2024-04-22T12:02:42.335Z,5.40
2024-04-22T12:03:47.346Z,5.20
2024-04-22T12:04:54.737Z,5.07
2024-04-22T12:05:59.798Z,5.10
2024-04-22T12:07:04.704Z,5.40
2024-04-22T12:08:10.414Z,5.32
2024-04-22T12:09:15.312Z,5.47
2024-04-22T12:10:20.772Z,5.72
2024-04-22T12:11:26.532Z,5.78
2024-04-22T12:12:31.605Z,5.65
2024-04-22T12:13:36.581Z,5.82
2024-04-22T12:14:42.152Z,5.88
2024-04-22T12:15:47.151Z,6.05
2024-04-22T12:16:52.297Z,5.72
2024-04-22T12:17:57.538Z,5.55
2024-04-22T12:19:02.542Z,6.25
2024-04-22T12:20:07.687Z,5.80
2024-04-22T12:21:13.816Z,6.28
2024-04-22T12:22:18.915Z,6.43
2024-04-22T12:23:24.862Z,6.70
2024-04-22T12:24:30.055Z,6.28
2024-04-22T12:25:35.206Z,6.72
2024-04-22T12:26:40.660Z,6.13
2024-04-22T12:27:46.113Z,6.53
2024-04-22T12:28:51.051Z,6.50
2024-04-22T12:29:55.920Z,6.50
2024-04-22T12:31:00.876Z,5.97
2024-04-22T12:32:06.103Z,6.25
2024-04-22T12:33:11.638Z,6.10
2024-04-22T12:34:17.371Z,6.13
2024-04-22T12:35:22.193Z,6.13
2024-04-22T12:36:26.903Z,6.20
2024-04-22T12:37:32.469Z,6.13
2024-04-22T12:38:37.673Z,6.13
2024-04-22T12:39:43.811Z,6.10
2024-04-22T12:40:50.399Z,5.93
2024-04-22T12:41:55.704Z,5.78
2024-04-22T12:43:02.082Z,5.70
2024-04-22T12:44:08.054Z,6.10
2024-04-22T12:45:13.113Z,5.85
2024-04-22T12:46:18.051Z,5.53
2024-04-22T12:47:41.711Z,5.80
2024-04-22T12:49:05.143Z,5.78
2024-04-22T12:50:28.433Z,5.93
2024-04-22T12:51:33.117Z,5.75
2024-04-22T12:52:38.007Z,5.32
2024-04-22T12:53:44.877Z,6.00
2024-04-22T12:54:51.137Z,5.85
2024-04-22T12:55:56.247Z,5.53
2024-04-22T12:57:01.263Z,5.22
2024-04-22T12:58:06.415Z,5.40
2024-04-22T12:59:11.209Z,5.60
2024-04-22T13:00:17.280Z,5.60
2024-04-22T13:01:21.993Z,5.65
2024-04-22T13:02:26.904Z,5.50
2024-04-22T13:03:31.967Z,5.88
2024-04-22T13:04:36.866Z,5.63
2024-04-22T13:05:42.401Z,5.80
2024-04-22T13:06:47.971Z,5.50
2024-04-22T13:07:52.916Z,5.25
2024-04-22T13:08:59.378Z,4.95
2024-04-22T13:10:05.671Z,5.55
2024-04-22T13:11:11.258Z,5.43
2024-04-22T13:12:16.046Z,5.50
2024-04-22T13:13:21.813Z,5.85
2024-04-22T13:14:27.154Z,5.28
2024-04-22T13:15:31.885Z,5.40
2024-04-22T13:16:37.157Z,5.45
2024-04-22T13:17:42.132Z,5.13
2024-04-22T13:18:47.023Z,5.25
2024-04-22T13:19:52.536Z,5.60
2024-04-22T13:20:57.619Z,5.40
2024-04-22T13:22:02.379Z,5.57
2024-04-22T13:23:07.561Z,5.70
2024-04-22T13:24:12.332Z,5.43
2024-04-22T13:25:17.452Z,5.75
2024-04-22T13:26:23.260Z,6.00
2024-04-22T13:27:28.402Z,5.47
2024-04-22T13:28:35.147Z,5.68
2024-04-22T13:29:41.437Z,5.95
2024-04-22T13:30:46.332Z,5.50
2024-04-22T13:31:52.421Z,5.70
2024-04-22T13:32:59.947Z,5.40
2024-04-22T13:34:04.826Z,5.72
2024-04-22T13:35:10.044Z,5.50
2024-04-22T13:36:15.049Z,5.90
2024-04-22T13:37:19.879Z,5.05
2024-04-22T13:38:24.832Z,5.20
2024-04-22T13:39:31.053Z,5.57
2024-04-22T13:40:36.173Z,5.35
2024-04-22T13:41:41.117Z,4.82
2024-04-22T13:42:48.731Z,5.32
2024-04-22T13:43:54.484Z,5.97
2024-04-22T13:44:59.613Z,4.88
2024-04-22T13:46:05.096Z,5.90
2024-04-22T13:47:09.785Z,5.65
2024-04-22T13:48:14.504Z,5.70
2024-04-22T13:49:19.805Z,5.60
2024-04-22T13:50:25.068Z,5.75
2024-04-22T13:51:29.872Z,5.50
2024-04-22T13:52:35.628Z,6.05
2024-04-22T13:53:40.503Z,5.78
2024-04-22T13:54:45.450Z,5.88
2024-04-22T13:55:50.622Z,5.80
2024-04-22T13:56:58.145Z,5.53
2024-04-22T13:58:03.175Z,5.53
2024-04-22T13:59:09.114Z,5.55
2024-04-22T14:00:15.045Z,5.68
2024-04-22T14:01:20.046Z,5.70
2024-04-22T14:02:25.073Z,5.90
2024-04-22T14:03:29.834Z,6.07
2024-04-22T14:04:34.903Z,6.35
2024-04-22T14:05:40.497Z,5.93
2024-04-22T14:06:45.517Z,6.20
2024-04-22T14:07:50.647Z,5.68
2024-04-22T14:08:55.580Z,5.95
2024-04-22T14:10:01.629Z,5.72
2024-04-22T14:11:09.397Z,6.00
2024-04-22T14:12:18.342Z,6.18
2024-04-22T14:13:23.155Z,5.68
2024-04-22T14:14:27.947Z,6.25
2024-04-22T14:15:44.503Z,6.57
2024-04-22T14:16:54.661Z,6.22
2024-04-22T14:17:59.876Z,5.88
2024-04-22T14:19:05.945Z,6.53
2024-04-22T14:20:11.052Z,6.60
2024-04-22T14:21:15.913Z,6.20
2024-04-22T14:22:21.041Z,6.20
2024-04-22T14:23:25.874Z,6.57
2024-04-22T14:24:30.931Z,6.53
2024-04-22T14:25:36.866Z,6.15
2024-04-22T14:26:41.541Z,6.18
2024-04-22T14:27:47.349Z,6.07
2024-04-22T14:28:52.994Z,6.28
2024-04-22T14:29:57.819Z,5.95
2024-04-22T14:31:02.681Z,5.95
2024-04-22T14:32:08.504Z,6.15
2024-04-22T14:33:23.157Z,6.13
2024-04-22T14:34:28.982Z,6.15
2024-04-22T14:35:34.993Z,6.57
2024-04-22T14:36:39.781Z,6.60
2024-04-22T14:37:44.568Z,6.20
2024-04-22T14:38:50.490Z,6.47
2024-04-22T14:39:55.778Z,6.20
2024-04-22T14:41:00.624Z,6.40
2024-04-22T14:42:05.848Z,6.30
2024-04-22T14:43:11.019Z,6.32
2024-04-22T14:44:16.288Z,5.80
2024-04-22T14:45:21.868Z,6.13